sensor_id;sensor_type;location;lat;lon;timestamp;temperature;humidity
36924;DHT22;22841;50.252;18.688;2023-08-21T00:00:07;21.60;99.90
36924;DHT22;22841;50.252;18.688;2023-08-21T00:02:34;21.50;99.90
36924;DHT22;22841;50.252;18.688;2023-08-21T00:05:00;21.50;99.90
36924;DHT22;22841;50.252;18.688;2023-08-21T00:07:26;21.50;99.90
36924;DHT22;22841;50.252;18.688;2023-08-21T00:09:52;21.50;99.90
36924;DHT22;22841;50.252;18.688;2023-08-21T00:12:18;21.50;99.90
36924;DHT22;22841;50.252;18.688;2023-08-21T00:14:44;21.50;99.90
36924;DHT22;22841;50.252;18.688;2023-08-21T00:17:10;21.50;99.90
36924;DHT22;22841;50.252;18.688;2023-08-21T00:19:36;21.50;99.90
36924;DHT22;22841;50.252;18.688;2023-08-21T00:22:03;21.50;99.90
36924;DHT22;22841;50.252;18.688;2023-08-21T00:24:29;21.40;99.90
36924;DHT22;22841;50.252;18.688;2023-08-21T00:26:55;21.40;99.90
36924;DHT22;22841;50.252;18.688;2023-08-21T00:29:21;21.40;99.90
36924;DHT22;22841;50.252;18.688;2023-08-21T00:31:47;21.40;1.00
36924;DHT22;22841;50.252;18.688;2023-08-21T00:34:13;21.40;1.00
36924;DHT22;22841;50.252;18.688;2023-08-21T00:36:39;21.30;1.00
36924;DHT22;22841;50.252;18.688;2023-08-21T00:39:05;21.20;1.00
36924;DHT22;22841;50.252;18.688;2023-08-21T00:41:32;21.20;1.00
36924;DHT22;22841;50.252;18.688;2023-08-21T00:44:00;21.30;1.00
36924;DHT22;22841;50.252;18.688;2023-08-21T00:46:26;21.20;1.00
36924;DHT22;22841;50.252;18.688;2023-08-21T00:48:52;21.20;1.00
36924;DHT22;22841;50.252;18.688;2023-08-21T00:51:19;21.20;1.00
36924;DHT22;22841;50.252;18.688;2023-08-21T00:53:45;21.10;15.40
36924;DHT22;22841;50.252;18.688;2023-08-21T00:56:12;21.10;4.40
36924;DHT22;22841;50.252;18.688;2023-08-21T00:58:39;21.10;1.00
36924;DHT22;22841;50.252;18.688;2023-08-21T01:01:05;21.20;1.00
36924;DHT22;22841;50.252;18.688;2023-08-21T01:03:31;21.20;1.00
36924;DHT22;22841;50.252;18.688;2023-08-21T01:05:57;21.20;1.00
36924;DHT22;22841;50.252;18.688;2023-08-21T01:11:01;21.10;11.30
36924;DHT22;22841;50.252;18.688;2023-08-21T01:15:55;21.10;19.30
36924;DHT22;22841;50.252;18.688;2023-08-21T01:18:24;21.00;40.50
36924;DHT22;22841;50.252;18.688;2023-08-21T01:20:51;21.00;99.90
36924;DHT22;22841;50.252;18.688;2023-08-21T01:23:37;21.00;99.90
36924;DHT22;22841;50.252;18.688;2023-08-21T01:26:04;20.90;99.90
36924;DHT22;22841;50.252;18.688;2023-08-21T01:28:31;20.90;99.90
36924;DHT22;22841;50.252;18.688;2023-08-21T01:33:33;20.90;99.90
36924;DHT22;22841;50.252;18.688;2023-08-21T01:36:02;21.00;99.90
36924;DHT22;22841;50.252;18.688;2023-08-21T01:38:33;21.00;90.00
36924;DHT22;22841;50.252;18.688;2023-08-21T01:40:59;21.00;82.30
36924;DHT22;22841;50.252;18.688;2023-08-21T01:43:25;21.00;75.90
36924;DHT22;22841;50.252;18.688;2023-08-21T01:45:51;20.90;99.90
36924;DHT22;22841;50.252;18.688;2023-08-21T01:48:17;20.80;99.90
36924;DHT22;22841;50.252;18.688;2023-08-21T01:50:44;20.80;99.90
36924;DHT22;22841;50.252;18.688;2023-08-21T01:53:10;20.80;99.90
36924;DHT22;22841;50.252;18.688;2023-08-21T01:55:36;20.80;99.90
36924;DHT22;22841;50.252;18.688;2023-08-21T01:58:02;20.90;99.90
36924;DHT22;22841;50.252;18.688;2023-08-21T02:00:28;20.90;99.90
36924;DHT22;22841;50.252;18.688;2023-08-21T02:02:54;20.90;99.90
36924;DHT22;22841;50.252;18.688;2023-08-21T02:05:20;20.80;99.90
36924;DHT22;22841;50.252;18.688;2023-08-21T02:07:46;20.90;99.90
36924;DHT22;22841;50.252;18.688;2023-08-21T02:10:13;20.90;99.90
36924;DHT22;22841;50.252;18.688;2023-08-21T02:12:39;20.90;98.90
36924;DHT22;22841;50.252;18.688;2023-08-21T02:15:06;20.80;99.90
36924;DHT22;22841;50.252;18.688;2023-08-21T02:17:32;20.80;99.90
36924;DHT22;22841;50.252;18.688;2023-08-21T02:19:58;20.70;99.90
36924;DHT22;22841;50.252;18.688;2023-08-21T02:22:24;20.60;99.90
36924;DHT22;22841;50.252;18.688;2023-08-21T02:24:51;20.50;99.90
36924;DHT22;22841;50.252;18.688;2023-08-21T02:27:17;20.50;99.90
36924;DHT22;22841;50.252;18.688;2023-08-21T02:29:43;20.40;99.90
36924;DHT22;22841;50.252;18.688;2023-08-21T02:32:09;20.40;99.90
36924;DHT22;22841;50.252;18.688;2023-08-21T02:34:35;20.40;99.90
36924;DHT22;22841;50.252;18.688;2023-08-21T02:37:01;20.40;99.90
36924;DHT22;22841;50.252;18.688;2023-08-21T02:39:28;20.40;99.90
36924;DHT22;22841;50.252;18.688;2023-08-21T02:41:55;20.50;99.90
36924;DHT22;22841;50.252;18.688;2023-08-21T02:44:21;20.50;99.90
36924;DHT22;22841;50.252;18.688;2023-08-21T02:46:47;20.50;99.90
36924;DHT22;22841;50.252;18.688;2023-08-21T02:49:13;20.50;99.90
36924;DHT22;22841;50.252;18.688;2023-08-21T02:51:39;20.30;99.90
36924;DHT22;22841;50.252;18.688;2023-08-21T02:54:05;20.40;99.90
36924;DHT22;22841;50.252;18.688;2023-08-21T02:56:32;20.40;99.90
36924;DHT22;22841;50.252;18.688;2023-08-21T02:58:58;20.50;99.90
36924;DHT22;22841;50.252;18.688;2023-08-21T03:01:24;20.50;99.90
36924;DHT22;22841;50.252;18.688;2023-08-21T03:03:50;20.50;99.90
36924;DHT22;22841;50.252;18.688;2023-08-21T03:06:16;20.50;99.90
36924;DHT22;22841;50.252;18.688;2023-08-21T03:08:42;20.40;99.90
36924;DHT22;22841;50.252;18.688;2023-08-21T03:11:09;20.40;99.90
36924;DHT22;22841;50.252;18.688;2023-08-21T03:13:36;20.30;99.90
36924;DHT22;22841;50.252;18.688;2023-08-21T03:16:02;20.30;99.90
36924;DHT22;22841;50.252;18.688;2023-08-21T03:18:31;20.30;99.90
36924;DHT22;22841;50.252;18.688;2023-08-21T03:20:57;20.30;99.90
36924;DHT22;22841;50.252;18.688;2023-08-21T03:23:24;20.30;99.90
36924;DHT22;22841;50.252;18.688;2023-08-21T03:25:53;20.20;99.90
36924;DHT22;22841;50.252;18.688;2023-08-21T03:28:19;20.20;99.90
36924;DHT22;22841;50.252;18.688;2023-08-21T03:30:45;20.20;99.90
36924;DHT22;22841;50.252;18.688;2023-08-21T03:33:11;20.10;99.90
36924;DHT22;22841;50.252;18.688;2023-08-21T03:35:37;20.20;99.90
36924;DHT22;22841;50.252;18.688;2023-08-21T03:38:03;20.10;99.90
36924;DHT22;22841;50.252;18.688;2023-08-21T03:40:29;20.10;99.90
36924;DHT22;22841;50.252;18.688;2023-08-21T03:42:56;20.20;99.90
36924;DHT22;22841;50.252;18.688;2023-08-21T03:45:22;20.30;99.90
36924;DHT22;22841;50.252;18.688;2023-08-21T03:47:48;20.30;99.90
36924;DHT22;22841;50.252;18.688;2023-08-21T03:50:14;20.30;99.90
36924;DHT22;22841;50.252;18.688;2023-08-21T03:52:40;20.30;99.90
36924;DHT22;22841;50.252;18.688;2023-08-21T03:55:06;20.20;99.90
36924;DHT22;22841;50.252;18.688;2023-08-21T03:57:33;20.20;99.90
36924;DHT22;22841;50.252;18.688;2023-08-21T03:59:59;20.00;1.00
36924;DHT22;22841;50.252;18.688;2023-08-21T04:02:25;20.10;99.90
36924;DHT22;22841;50.252;18.688;2023-08-21T04:04:51;20.10;99.90
36924;DHT22;22841;50.252;18.688;2023-08-21T04:07:17;20.00;1.00
36924;DHT22;22841;50.252;18.688;2023-08-21T04:09:44;20.00;1.00
36924;DHT22;22841;50.252;18.688;2023-08-21T04:12:10;19.90;1.00
36924;DHT22;22841;50.252;18.688;2023-08-21T04:14:36;20.00;1.00
36924;DHT22;22841;50.252;18.688;2023-08-21T04:17:02;20.00;1.00
36924;DHT22;22841;50.252;18.688;2023-08-21T04:19:28;20.00;1.00
36924;DHT22;22841;50.252;18.688;2023-08-21T04:21:58;20.10;1.00
36924;DHT22;22841;50.252;18.688;2023-08-21T04:24:24;20.20;99.90
36924;DHT22;22841;50.252;18.688;2023-08-21T04:26:51;20.20;99.90
36924;DHT22;22841;50.252;18.688;2023-08-21T04:29:17;20.30;99.90
36924;DHT22;22841;50.252;18.688;2023-08-21T04:31:43;20.30;99.90
36924;DHT22;22841;50.252;18.688;2023-08-21T04:34:09;20.20;1.00
36924;DHT22;22841;50.252;18.688;2023-08-21T04:36:35;20.20;1.00
36924;DHT22;22841;50.252;18.688;2023-08-21T04:39:01;20.30;1.00
36924;DHT22;22841;50.252;18.688;2023-08-21T04:41:27;20.30;1.00
36924;DHT22;22841;50.252;18.688;2023-08-21T04:43:53;20.30;1.00
36924;DHT22;22841;50.252;18.688;2023-08-21T04:46:19;20.30;1.00
36924;DHT22;22841;50.252;18.688;2023-08-21T04:48:46;20.30;1.00
36924;DHT22;22841;50.252;18.688;2023-08-21T04:51:12;20.30;1.00
36924;DHT22;22841;50.252;18.688;2023-08-21T04:53:39;20.30;1.00
36924;DHT22;22841;50.252;18.688;2023-08-21T04:56:05;20.30;1.00
36924;DHT22;22841;50.252;18.688;2023-08-21T04:58:31;20.40;1.00
36924;DHT22;22841;50.252;18.688;2023-08-21T05:00:57;20.40;1.00
36924;DHT22;22841;50.252;18.688;2023-08-21T05:03:23;20.50;99.90
36924;DHT22;22841;50.252;18.688;2023-08-21T05:05:54;20.50;99.90
36924;DHT22;22841;50.252;18.688;2023-08-21T05:08:24;20.60;1.00
36924;DHT22;22841;50.252;18.688;2023-08-21T05:10:58;20.70;99.90
36924;DHT22;22841;50.252;18.688;2023-08-21T05:13:25;20.80;99.90
36924;DHT22;22841;50.252;18.688;2023-08-21T05:15:53;20.90;1.00
36924;DHT22;22841;50.252;18.688;2023-08-21T05:18:21;20.90;1.00
36924;DHT22;22841;50.252;18.688;2023-08-21T05:20:47;21.00;1.00
36924;DHT22;22841;50.252;18.688;2023-08-21T05:23:14;21.00;1.00
36924;DHT22;22841;50.252;18.688;2023-08-21T05:25:40;21.10;1.00
36924;DHT22;22841;50.252;18.688;2023-08-21T05:28:07;21.10;1.00
36924;DHT22;22841;50.252;18.688;2023-08-21T05:30:33;21.10;1.00
36924;DHT22;22841;50.252;18.688;2023-08-21T05:33:02;21.20;1.00
36924;DHT22;22841;50.252;18.688;2023-08-21T05:35:28;21.30;1.00
36924;DHT22;22841;50.252;18.688;2023-08-21T05:37:54;21.40;1.00
36924;DHT22;22841;50.252;18.688;2023-08-21T05:40:20;21.40;1.00
36924;DHT22;22841;50.252;18.688;2023-08-21T05:42:46;21.50;99.90
36924;DHT22;22841;50.252;18.688;2023-08-21T05:45:12;21.50;99.90
36924;DHT22;22841;50.252;18.688;2023-08-21T05:47:38;21.60;99.90
36924;DHT22;22841;50.252;18.688;2023-08-21T05:50:05;21.60;99.90
36924;DHT22;22841;50.252;18.688;2023-08-21T05:52:31;21.60;99.90
36924;DHT22;22841;50.252;18.688;2023-08-21T05:54:57;21.60;99.90
36924;DHT22;22841;50.252;18.688;2023-08-21T05:57:24;21.60;99.90
36924;DHT22;22841;50.252;18.688;2023-08-21T05:59:50;21.70;99.90
36924;DHT22;22841;50.252;18.688;2023-08-21T06:02:17;21.60;99.90
36924;DHT22;22841;50.252;18.688;2023-08-21T06:04:43;21.70;99.90
36924;DHT22;22841;50.252;18.688;2023-08-21T06:07:10;21.70;99.90
36924;DHT22;22841;50.252;18.688;2023-08-21T06:09:36;21.70;99.90
36924;DHT22;22841;50.252;18.688;2023-08-21T06:12:05;21.60;99.90
36924;DHT22;22841;50.252;18.688;2023-08-21T06:14:31;21.60;99.90
36924;DHT22;22841;50.252;18.688;2023-08-21T06:16:59;21.60;99.90
36924;DHT22;22841;50.252;18.688;2023-08-21T06:19:25;21.60;99.90
36924;DHT22;22841;50.252;18.688;2023-08-21T06:21:52;21.60;99.90
36924;DHT22;22841;50.252;18.688;2023-08-21T06:24:18;21.60;99.90
36924;DHT22;22841;50.252;18.688;2023-08-21T06:26:44;21.70;99.90
36924;DHT22;22841;50.252;18.688;2023-08-21T06:29:10;21.70;99.90
36924;DHT22;22841;50.252;18.688;2023-08-21T06:31:36;21.80;99.90
36924;DHT22;22841;50.252;18.688;2023-08-21T06:34:02;21.90;99.90
36924;DHT22;22841;50.252;18.688;2023-08-21T06:36:28;21.90;99.90
36924;DHT22;22841;50.252;18.688;2023-08-21T06:38:56;21.90;99.90
36924;DHT22;22841;50.252;18.688;2023-08-21T06:41:22;21.90;99.90
36924;DHT22;22841;50.252;18.688;2023-08-21T06:43:48;21.90;99.90
36924;DHT22;22841;50.252;18.688;2023-08-21T06:46:14;21.90;99.90
36924;DHT22;22841;50.252;18.688;2023-08-21T06:48:40;21.90;99.90
36924;DHT22;22841;50.252;18.688;2023-08-21T06:51:07;21.90;99.90
36924;DHT22;22841;50.252;18.688;2023-08-21T06:53:33;22.00;99.90
36924;DHT22;22841;50.252;18.688;2023-08-21T06:55:59;22.00;99.90
36924;DHT22;22841;50.252;18.688;2023-08-21T06:58:25;22.00;75.60
36924;DHT22;22841;50.252;18.688;2023-08-21T07:00:54;22.00;68.30
36924;DHT22;22841;50.252;18.688;2023-08-21T07:03:20;22.00;99.90
36924;DHT22;22841;50.252;18.688;2023-08-21T07:05:46;22.00;99.90
36924;DHT22;22841;50.252;18.688;2023-08-21T07:08:19;22.00;99.90
36924;DHT22;22841;50.252;18.688;2023-08-21T07:10:45;22.10;99.90
36924;DHT22;22841;50.252;18.688;2023-08-21T07:13:11;22.10;86.10
36924;DHT22;22841;50.252;18.688;2023-08-21T07:15:37;22.10;66.70
36924;DHT22;22841;50.252;18.688;2023-08-21T07:18:03;22.10;51.60
36924;DHT22;22841;50.252;18.688;2023-08-21T07:20:29;22.10;81.30
36924;DHT22;22841;50.252;18.688;2023-08-21T07:22:56;22.20;31.90
36924;DHT22;22841;50.252;18.688;2023-08-21T07:25:22;22.20;1.00
36924;DHT22;22841;50.252;18.688;2023-08-21T07:27:48;22.30;52.40
36924;DHT22;22841;50.252;18.688;2023-08-21T07:30:16;22.40;99.90
36924;DHT22;22841;50.252;18.688;2023-08-21T07:32:43;22.40;99.90
36924;DHT22;22841;50.252;18.688;2023-08-21T07:35:09;22.40;1.00
36924;DHT22;22841;50.252;18.688;2023-08-21T07:37:36;22.60;6.00
36924;DHT22;22841;50.252;18.688;2023-08-21T07:40:02;22.60;99.90
36924;DHT22;22841;50.252;18.688;2023-08-21T07:42:29;22.60;99.90
36924;DHT22;22841;50.252;18.688;2023-08-21T07:44:55;22.60;1.00
36924;DHT22;22841;50.252;18.688;2023-08-21T07:47:21;22.60;1.00
36924;DHT22;22841;50.252;18.688;2023-08-21T07:49:47;22.60;1.00
36924;DHT22;22841;50.252;18.688;2023-08-21T07:52:13;22.70;99.90
36924;DHT22;22841;50.252;18.688;2023-08-21T07:54:39;22.70;99.90
36924;DHT22;22841;50.252;18.688;2023-08-21T07:57:05;22.70;99.90
36924;DHT22;22841;50.252;18.688;2023-08-21T07:59:32;22.80;1.00
36924;DHT22;22841;50.252;18.688;2023-08-21T08:01:58;22.80;99.90
36924;DHT22;22841;50.252;18.688;2023-08-21T08:04:26;22.90;99.90
36924;DHT22;22841;50.252;18.688;2023-08-21T08:06:52;23.00;99.90
36924;DHT22;22841;50.252;18.688;2023-08-21T08:09:18;23.10;99.90
36924;DHT22;22841;50.252;18.688;2023-08-21T08:11:45;23.30;99.90
36924;DHT22;22841;50.252;18.688;2023-08-21T08:14:11;23.40;1.00
36924;DHT22;22841;50.252;18.688;2023-08-21T08:16:37;23.40;99.90
36924;DHT22;22841;50.252;18.688;2023-08-21T08:19:03;23.40;99.90
36924;DHT22;22841;50.252;18.688;2023-08-21T08:21:29;23.30;97.80
36924;DHT22;22841;50.252;18.688;2023-08-21T08:23:56;23.30;99.90
36924;DHT22;22841;50.252;18.688;2023-08-21T08:26:23;23.60;99.90
36924;DHT22;22841;50.252;18.688;2023-08-21T08:28:50;23.80;1.00
36924;DHT22;22841;50.252;18.688;2023-08-21T08:31:20;24.00;99.90
36924;DHT22;22841;50.252;18.688;2023-08-21T08:33:46;24.00;99.90
36924;DHT22;22841;50.252;18.688;2023-08-21T08:36:14;24.10;1.00
36924;DHT22;22841;50.252;18.688;2023-08-21T08:38:40;24.00;99.90
36924;DHT22;22841;50.252;18.688;2023-08-21T08:41:11;24.00;1.00
36924;DHT22;22841;50.252;18.688;2023-08-21T08:43:40;24.00;1.00
36924;DHT22;22841;50.252;18.688;2023-08-21T08:46:10;24.10;99.90
36924;DHT22;22841;50.252;18.688;2023-08-21T08:48:37;24.30;1.00
36924;DHT22;22841;50.252;18.688;2023-08-21T08:51:04;24.50;1.00
36924;DHT22;22841;50.252;18.688;2023-08-21T08:53:31;24.70;68.20
36924;DHT22;22841;50.252;18.688;2023-08-21T08:55:58;24.80;91.50
36924;DHT22;22841;50.252;18.688;2023-08-21T08:58:24;25.00;99.90
36924;DHT22;22841;50.252;18.688;2023-08-21T09:00:50;25.10;99.90
36924;DHT22;22841;50.252;18.688;2023-08-21T09:03:16;25.30;99.90
36924;DHT22;22841;50.252;18.688;2023-08-21T09:05:42;25.40;99.90
36924;DHT22;22841;50.252;18.688;2023-08-21T09:08:09;25.30;1.00
36924;DHT22;22841;50.252;18.688;2023-08-21T09:10:37;25.40;2.80
36924;DHT22;22841;50.252;18.688;2023-08-21T09:13:18;25.60;99.90
36924;DHT22;22841;50.252;18.688;2023-08-21T09:15:46;25.70;99.90
36924;DHT22;22841;50.252;18.688;2023-08-21T09:18:15;25.70;99.90
36924;DHT22;22841;50.252;18.688;2023-08-21T09:20:42;25.70;1.00
36924;DHT22;22841;50.252;18.688;2023-08-21T09:23:09;25.70;1.00
36924;DHT22;22841;50.252;18.688;2023-08-21T09:25:39;25.80;99.90
36924;DHT22;22841;50.252;18.688;2023-08-21T09:28:07;25.90;99.90
36924;DHT22;22841;50.252;18.688;2023-08-21T09:33:12;26.10;1.00
36924;DHT22;22841;50.252;18.688;2023-08-21T09:35:38;26.20;99.90
36924;DHT22;22841;50.252;18.688;2023-08-21T09:38:05;26.30;99.90
36924;DHT22;22841;50.252;18.688;2023-08-21T09:40:33;26.30;51.40
36924;DHT22;22841;50.252;18.688;2023-08-21T09:42:59;26.40;99.90
36924;DHT22;22841;50.252;18.688;2023-08-21T09:45:27;26.50;99.90
36924;DHT22;22841;50.252;18.688;2023-08-21T09:47:55;26.60;86.60
36924;DHT22;22841;50.252;18.688;2023-08-21T09:50:22;26.60;74.90
36924;DHT22;22841;50.252;18.688;2023-08-21T09:52:49;26.60;99.90
36924;DHT22;22841;50.252;18.688;2023-08-21T09:55:15;26.60;99.90
36924;DHT22;22841;50.252;18.688;2023-08-21T09:57:41;26.60;40.50
36924;DHT22;22841;50.252;18.688;2023-08-21T10:00:08;26.50;1.00
36924;DHT22;22841;50.252;18.688;2023-08-21T10:02:50;26.40;99.90
36924;DHT22;22841;50.252;18.688;2023-08-21T10:05:17;26.30;25.40
36924;DHT22;22841;50.252;18.688;2023-08-21T10:07:45;26.30;1.00
36924;DHT22;22841;50.252;18.688;2023-08-21T10:10:13;26.10;1.00
36924;DHT22;22841;50.252;18.688;2023-08-21T10:12:39;26.00;99.90
36924;DHT22;22841;50.252;18.688;2023-08-21T10:15:07;25.90;99.90
36924;DHT22;22841;50.252;18.688;2023-08-21T10:17:38;25.70;99.90
36924;DHT22;22841;50.252;18.688;2023-08-21T10:20:06;25.60;1.00
36924;DHT22;22841;50.252;18.688;2023-08-21T10:22:47;25.50;99.90
36924;DHT22;22841;50.252;18.688;2023-08-21T10:25:24;25.40;99.90
36924;DHT22;22841;50.252;18.688;2023-08-21T10:27:55;25.40;60.50
36924;DHT22;22841;50.252;18.688;2023-08-21T10:30:27;25.30;99.90
36924;DHT22;22841;50.252;18.688;2023-08-21T10:32:58;25.30;99.90
36924;DHT22;22841;50.252;18.688;2023-08-21T10:35:28;25.20;99.90
36924;DHT22;22841;50.252;18.688;2023-08-21T10:38:10;25.20;90.70
36924;DHT22;22841;50.252;18.688;2023-08-21T10:40:39;25.20;99.90
36924;DHT22;22841;50.252;18.688;2023-08-21T10:46:07;25.30;1.00
36924;DHT22;22841;50.252;18.688;2023-08-21T10:48:35;25.30;99.90
36924;DHT22;22841;50.252;18.688;2023-08-21T10:51:03;25.40;99.90
36924;DHT22;22841;50.252;18.688;2023-08-21T10:53:31;25.40;1.00
36924;DHT22;22841;50.252;18.688;2023-08-21T10:56:05;25.40;1.00
36924;DHT22;22841;50.252;18.688;2023-08-21T10:58:40;25.40;99.90
36924;DHT22;22841;50.252;18.688;2023-08-21T11:01:07;25.50;1.00
36924;DHT22;22841;50.252;18.688;2023-08-21T11:03:33;25.50;11.40
36924;DHT22;22841;50.252;18.688;2023-08-21T11:06:07;25.50;99.90
36924;DHT22;22841;50.252;18.688;2023-08-21T11:08:34;25.50;99.90
36924;DHT22;22841;50.252;18.688;2023-08-21T11:11:02;25.60;1.00
36924;DHT22;22841;50.252;18.688;2023-08-21T11:13:28;25.70;99.90
36924;DHT22;22841;50.252;18.688;2023-08-21T11:16:02;25.70;99.90
36924;DHT22;22841;50.252;18.688;2023-08-21T11:18:37;25.80;1.00
36924;DHT22;22841;50.252;18.688;2023-08-21T11:21:10;25.90;99.90
36924;DHT22;22841;50.252;18.688;2023-08-21T11:23:41;25.90;99.90
36924;DHT22;22841;50.252;18.688;2023-08-21T11:26:11;25.80;99.90
36924;DHT22;22841;50.252;18.688;2023-08-21T11:28:38;25.70;99.90
36924;DHT22;22841;50.252;18.688;2023-08-21T11:31:06;25.70;99.90
36924;DHT22;22841;50.252;18.688;2023-08-21T11:33:32;25.70;1.00
36924;DHT22;22841;50.252;18.688;2023-08-21T11:35:59;25.60;99.90
36924;DHT22;22841;50.252;18.688;2023-08-21T11:38:27;25.60;99.50
36924;DHT22;22841;50.252;18.688;2023-08-21T11:41:00;25.60;99.90
36924;DHT22;22841;50.252;18.688;2023-08-21T11:43:40;25.70;99.90
36924;DHT22;22841;50.252;18.688;2023-08-21T11:46:09;25.80;95.10
36924;DHT22;22841;50.252;18.688;2023-08-21T11:48:40;25.90;99.90
36924;DHT22;22841;50.252;18.688;2023-08-21T11:51:07;25.90;99.90
36924;DHT22;22841;50.252;18.688;2023-08-21T11:53:41;26.00;99.90
36924;DHT22;22841;50.252;18.688;2023-08-21T11:56:15;26.10;99.90
36924;DHT22;22841;50.252;18.688;2023-08-21T11:58:43;26.20;99.90
36924;DHT22;22841;50.252;18.688;2023-08-21T12:01:15;26.30;99.90
36924;DHT22;22841;50.252;18.688;2023-08-21T12:03:41;26.20;99.90
36924;DHT22;22841;50.252;18.688;2023-08-21T12:06:10;26.20;99.90
36924;DHT22;22841;50.252;18.688;2023-08-21T12:08:40;26.30;1.00
36924;DHT22;22841;50.252;18.688;2023-08-21T12:11:07;26.20;99.90
36924;DHT22;22841;50.252;18.688;2023-08-21T12:13:33;26.40;99.90
36924;DHT22;22841;50.252;18.688;2023-08-21T12:16:00;26.40;99.90
36924;DHT22;22841;50.252;18.688;2023-08-21T12:18:26;26.40;99.90
36924;DHT22;22841;50.252;18.688;2023-08-21T12:20:52;26.50;99.90
36924;DHT22;22841;50.252;18.688;2023-08-21T12:23:18;26.50;1.00
36924;DHT22;22841;50.252;18.688;2023-08-21T12:25:44;26.60;99.90
36924;DHT22;22841;50.252;18.688;2023-08-21T12:28:11;26.70;1.00
36924;DHT22;22841;50.252;18.688;2023-08-21T12:30:37;26.80;99.90
36924;DHT22;22841;50.252;18.688;2023-08-21T12:33:03;26.80;99.90
36924;DHT22;22841;50.252;18.688;2023-08-21T12:35:29;26.80;93.60
36924;DHT22;22841;50.252;18.688;2023-08-21T12:37:57;26.90;1.00
36924;DHT22;22841;50.252;18.688;2023-08-21T12:40:24;26.90;94.40
36924;DHT22;22841;50.252;18.688;2023-08-21T12:42:51;26.90;1.00
36924;DHT22;22841;50.252;18.688;2023-08-21T12:45:17;26.90;1.00
36924;DHT22;22841;50.252;18.688;2023-08-21T12:47:43;27.00;63.60
36924;DHT22;22841;50.252;18.688;2023-08-21T12:50:09;27.00;99.90
36924;DHT22;22841;50.252;18.688;2023-08-21T12:52:35;27.10;99.90
36924;DHT22;22841;50.252;18.688;2023-08-21T12:55:01;27.10;26.70
36924;DHT22;22841;50.252;18.688;2023-08-21T12:57:31;27.20;1.00
36924;DHT22;22841;50.252;18.688;2023-08-21T12:59:58;27.10;1.00
36924;DHT22;22841;50.252;18.688;2023-08-21T13:02:24;27.20;29.10
36924;DHT22;22841;50.252;18.688;2023-08-21T13:04:50;27.20;1.00
36924;DHT22;22841;50.252;18.688;2023-08-21T13:07:16;27.20;99.90
36924;DHT22;22841;50.252;18.688;2023-08-21T13:09:43;27.30;99.90
36924;DHT22;22841;50.252;18.688;2023-08-21T13:12:10;27.40;99.90
36924;DHT22;22841;50.252;18.688;2023-08-21T13:14:36;27.40;99.90
36924;DHT22;22841;50.252;18.688;2023-08-21T13:17:02;27.50;99.90
36924;DHT22;22841;50.252;18.688;2023-08-21T13:19:28;27.60;99.90
36924;DHT22;22841;50.252;18.688;2023-08-21T13:21:55;27.60;99.90
36924;DHT22;22841;50.252;18.688;2023-08-21T13:24:21;27.70;99.90
36924;DHT22;22841;50.252;18.688;2023-08-21T13:26:47;27.60;99.90
36924;DHT22;22841;50.252;18.688;2023-08-21T13:29:13;27.60;99.90
36924;DHT22;22841;50.252;18.688;2023-08-21T13:31:39;27.60;99.90
36924;DHT22;22841;50.252;18.688;2023-08-21T13:34:05;27.70;99.90
36924;DHT22;22841;50.252;18.688;2023-08-21T13:36:32;27.80;99.90
36924;DHT22;22841;50.252;18.688;2023-08-21T13:38:58;27.90;99.90
36924;DHT22;22841;50.252;18.688;2023-08-21T13:41:24;28.00;98.80
36924;DHT22;22841;50.252;18.688;2023-08-21T13:43:50;28.00;99.90
36924;DHT22;22841;50.252;18.688;2023-08-21T13:46:16;28.00;97.20
36924;DHT22;22841;50.252;18.688;2023-08-21T13:48:43;27.90;92.10
36924;DHT22;22841;50.252;18.688;2023-08-21T13:51:09;28.00;99.90
36924;DHT22;22841;50.252;18.688;2023-08-21T13:53:35;28.10;77.50
36924;DHT22;22841;50.252;18.688;2023-08-21T13:56:01;28.10;99.90
36924;DHT22;22841;50.252;18.688;2023-08-21T13:58:27;28.20;99.90
36924;DHT22;22841;50.252;18.688;2023-08-21T14:00:54;28.20;94.40
36924;DHT22;22841;50.252;18.688;2023-08-21T14:03:21;28.10;70.10
36924;DHT22;22841;50.252;18.688;2023-08-21T14:05:47;28.00;95.10
36924;DHT22;22841;50.252;18.688;2023-08-21T14:08:13;28.00;57.90
36924;DHT22;22841;50.252;18.688;2023-08-21T14:10:39;28.00;97.30
36924;DHT22;22841;50.252;18.688;2023-08-21T14:13:06;28.20;95.90
36924;DHT22;22841;50.252;18.688;2023-08-21T14:15:34;28.20;73.40
36924;DHT22;22841;50.252;18.688;2023-08-21T14:18:00;28.30;78.30
36924;DHT22;22841;50.252;18.688;2023-08-21T14:20:27;28.20;99.90
36924;DHT22;22841;50.252;18.688;2023-08-21T14:22:53;28.20;99.90
36924;DHT22;22841;50.252;18.688;2023-08-21T14:25:19;28.30;99.90
36924;DHT22;22841;50.252;18.688;2023-08-21T14:27:47;28.30;91.70
36924;DHT22;22841;50.252;18.688;2023-08-21T14:30:13;28.30;92.90
36924;DHT22;22841;50.252;18.688;2023-08-21T14:32:40;28.40;83.10
36924;DHT22;22841;50.252;18.688;2023-08-21T14:35:06;28.40;91.70
36924;DHT22;22841;50.252;18.688;2023-08-21T14:37:36;28.50;99.90
36924;DHT22;22841;50.252;18.688;2023-08-21T14:40:03;28.30;98.30
36924;DHT22;22841;50.252;18.688;2023-08-21T14:42:36;28.30;99.90
36924;DHT22;22841;50.252;18.688;2023-08-21T14:45:03;28.10;99.90
36924;DHT22;22841;50.252;18.688;2023-08-21T14:47:29;28.00;99.90
36924;DHT22;22841;50.252;18.688;2023-08-21T14:49:55;27.90;99.90
36924;DHT22;22841;50.252;18.688;2023-08-21T14:52:21;27.80;99.90
36924;DHT22;22841;50.252;18.688;2023-08-21T14:54:51;27.70;99.90
36924;DHT22;22841;50.252;18.688;2023-08-21T14:57:17;27.70;99.90
36924;DHT22;22841;50.252;18.688;2023-08-21T14:59:43;27.60;99.90
36924;DHT22;22841;50.252;18.688;2023-08-21T15:02:09;27.60;99.90
36924;DHT22;22841;50.252;18.688;2023-08-21T15:04:35;27.50;99.90
36924;DHT22;22841;50.252;18.688;2023-08-21T15:07:02;27.50;99.90
36924;DHT22;22841;50.252;18.688;2023-08-21T15:09:29;27.60;99.90
36924;DHT22;22841;50.252;18.688;2023-08-21T15:11:55;27.60;99.90
36924;DHT22;22841;50.252;18.688;2023-08-21T15:14:21;27.60;99.90
36924;DHT22;22841;50.252;18.688;2023-08-21T15:16:47;27.60;99.90
36924;DHT22;22841;50.252;18.688;2023-08-21T15:19:13;27.60;99.90
36924;DHT22;22841;50.252;18.688;2023-08-21T15:21:39;27.60;99.90
36924;DHT22;22841;50.252;18.688;2023-08-21T15:24:06;27.60;99.90
36924;DHT22;22841;50.252;18.688;2023-08-21T15:26:32;27.50;99.90
36924;DHT22;22841;50.252;18.688;2023-08-21T15:29:00;27.50;99.90
36924;DHT22;22841;50.252;18.688;2023-08-21T15:31:26;27.50;99.90